sensor_id;sensor_type;location;lat;lon;timestamp;P1;durP1;ratioP1;P2;durP2;ratioP2
21513;SDS011;10918;48.102;11.636;2023-05-07T00:01:46;8.68;;;7.55;;
21513;SDS011;10918;48.102;11.636;2023-05-07T00:04:12;7.57;;;6.30;;
21513;SDS011;10918;48.102;11.636;2023-05-07T00:06:39;8.55;;;5.68;;
21513;SDS011;10918;48.102;11.636;2023-05-07T00:09:05;6.90;;;5.80;;
21513;SDS011;10918;48.102;11.636;2023-05-07T00:11:31;6.85;;;5.28;;
21513;SDS011;10918;48.102;11.636;2023-05-07T00:13:58;6.70;;;5.45;;
21513;SDS011;10918;48.102;11.636;2023-05-07T00:16:24;7.43;;;5.70;;
21513;SDS011;10918;48.102;11.636;2023-05-07T00:18:50;8.68;;;6.18;;
21513;SDS011;10918;48.102;11.636;2023-05-07T00:21:16;5.97;;;5.38;;
21513;SDS011;10918;48.102;11.636;2023-05-07T00:23:42;6.70;;;6.00;;
21513;SDS011;10918;48.102;11.636;2023-05-07T00:26:08;7.78;;;5.60;;
21513;SDS011;10918;48.102;11.636;2023-05-07T00:28:34;7.18;;;5.43;;
21513;SDS011;10918;48.102;11.636;2023-05-07T00:30:59;8.25;;;5.35;;
21513;SDS011;10918;48.102;11.636;2023-05-07T00:33:25;6.18;;;5.22;;
21513;SDS011;10918;48.102;11.636;2023-05-07T00:35:52;6.47;;;5.20;;
21513;SDS011;10918;48.102;11.636;2023-05-07T00:38:19;6.00;;;5.40;;
21513;SDS011;10918;48.102;11.636;2023-05-07T00:40:45;6.03;;;5.53;;
21513;SDS011;10918;48.102;11.636;2023-05-07T00:43:11;6.25;;;5.65;;
21513;SDS011;10918;48.102;11.636;2023-05-07T00:45:37;8.07;;;5.43;;
21513;SDS011;10918;48.102;11.636;2023-05-07T00:48:03;6.20;;;5.38;;
21513;SDS011;10918;48.102;11.636;2023-05-07T00:50:30;5.88;;;5.28;;
21513;SDS011;10918;48.102;11.636;2023-05-07T00:52:56;6.32;;;5.40;;
21513;SDS011;10918;48.102;11.636;2023-05-07T00:55:23;5.80;;;5.30;;
21513;SDS011;10918;48.102;11.636;2023-05-07T00:57:49;5.50;;;4.63;;
21513;SDS011;10918;48.102;11.636;2023-05-07T01:00:16;5.68;;;5.18;;
21513;SDS011;10918;48.102;11.636;2023-05-07T01:02:43;7.05;;;4.72;;
21513;SDS011;10918;48.102;11.636;2023-05-07T01:05:10;6.20;;;5.47;;
21513;SDS011;10918;48.102;11.636;2023-05-07T01:07:38;7.10;;;4.88;;
21513;SDS011;10918;48.102;11.636;2023-05-07T01:10:05;7.00;;;5.13;;
21513;SDS011;10918;48.102;11.636;2023-05-07T01:12:32;5.47;;;4.93;;
21513;SDS011;10918;48.102;11.636;2023-05-07T01:14:58;6.65;;;5.68;;
21513;SDS011;10918;48.102;11.636;2023-05-07T01:17:24;5.85;;;5.25;;
21513;SDS011;10918;48.102;11.636;2023-05-07T01:19:50;6.25;;;5.10;;
21513;SDS011;10918;48.102;11.636;2023-05-07T01:22:22;5.28;;;4.78;;
21513;SDS011;10918;48.102;11.636;2023-05-07T01:24:49;5.70;;;4.90;;
21513;SDS011;10918;48.102;11.636;2023-05-07T01:27:15;6.30;;;4.90;;
21513;SDS011;10918;48.102;11.636;2023-05-07T01:29:41;6.78;;;5.32;;
21513;SDS011;10918;48.102;11.636;2023-05-07T01:32:07;5.93;;;5.25;;
21513;SDS011;10918;48.102;11.636;2023-05-07T01:34:33;7.45;;;5.57;;
21513;SDS011;10918;48.102;11.636;2023-05-07T01:37:00;5.40;;;4.90;;
21513;SDS011;10918;48.102;11.636;2023-05-07T01:39:27;8.00;;;5.53;;
21513;SDS011;10918;48.102;11.636;2023-05-07T01:41:57;6.00;;;5.40;;
21513;SDS011;10918;48.102;11.636;2023-05-07T01:44:24;8.60;;;5.53;;
21513;SDS011;10918;48.102;11.636;2023-05-07T01:46:51;5.78;;;5.15;;
21513;SDS011;10918;48.102;11.636;2023-05-07T01:49:17;5.65;;;5.05;;
21513;SDS011;10918;48.102;11.636;2023-05-07T01:51:43;7.30;;;5.25;;
21513;SDS011;10918;48.102;11.636;2023-05-07T01:54:10;5.68;;;5.13;;
21513;SDS011;10918;48.102;11.636;2023-05-07T01:56:35;6.88;;;5.28;;
21513;SDS011;10918;48.102;11.636;2023-05-07T01:59:01;5.85;;;5.22;;
21513;SDS011;10918;48.102;11.636;2023-05-07T02:01:28;5.90;;;5.38;;
21513;SDS011;10918;48.102;11.636;2023-05-07T02:03:54;6.45;;;5.07;;
21513;SDS011;10918;48.102;11.636;2023-05-07T02:06:20;8.02;;;5.35;;
21513;SDS011;10918;48.102;11.636;2023-05-07T02:08:46;7.00;;;5.65;;
21513;SDS011;10918;48.102;11.636;2023-05-07T02:11:12;5.57;;;5.07;;
21513;SDS011;10918;48.102;11.636;2023-05-07T02:13:38;5.85;;;5.28;;
21513;SDS011;10918;48.102;11.636;2023-05-07T02:16:04;6.00;;;5.40;;
21513;SDS011;10918;48.102;11.636;2023-05-07T02:18:30;6.00;;;5.10;;
21513;SDS011;10918;48.102;11.636;2023-05-07T02:20:56;5.60;;;5.10;;
21513;SDS011;10918;48.102;11.636;2023-05-07T02:23:22;5.63;;;5.05;;
21513;SDS011;10918;48.102;11.636;2023-05-07T02:25:48;6.72;;;4.97;;
21513;SDS011;10918;48.102;11.636;2023-05-07T02:28:14;6.20;;;5.22;;
21513;SDS011;10918;48.102;11.636;2023-05-07T02:30:40;5.95;;;5.03;;
21513;SDS011;10918;48.102;11.636;2023-05-07T02:33:06;5.80;;;5.20;;
21513;SDS011;10918;48.102;11.636;2023-05-07T02:35:33;6.55;;;5.50;;
21513;SDS011;10918;48.102;11.636;2023-05-07T02:37:59;6.00;;;5.25;;
21513;SDS011;10918;48.102;11.636;2023-05-07T02:40:25;5.32;;;4.82;;
21513;SDS011;10918;48.102;11.636;2023-05-07T02:42:51;6.90;;;5.40;;
21513;SDS011;10918;48.102;11.636;2023-05-07T02:45:17;5.63;;;5.00;;
21513;SDS011;10918;48.102;11.636;2023-05-07T02:47:43;5.85;;;5.07;;
21513;SDS011;10918;48.102;11.636;2023-05-07T02:50:09;5.88;;;5.07;;
21513;SDS011;10918;48.102;11.636;2023-05-07T02:52:35;6.45;;;4.93;;
21513;SDS011;10918;48.102;11.636;2023-05-07T02:55:01;5.90;;;5.03;;
21513;SDS011;10918;48.102;11.636;2023-05-07T02:57:27;6.25;;;5.28;;
21513;SDS011;10918;48.102;11.636;2023-05-07T02:59:53;5.88;;;4.53;;
21513;SDS011;10918;48.102;11.636;2023-05-07T03:02:19;5.47;;;4.28;;
21513;SDS011;10918;48.102;11.636;2023-05-07T03:04:45;9.45;;;5.03;;
21513;SDS011;10918;48.102;11.636;2023-05-07T03:07:11;7.20;;;5.32;;
21513;SDS011;10918;48.102;11.636;2023-05-07T03:09:37;6.93;;;4.72;;
21513;SDS011;10918;48.102;11.636;2023-05-07T03:12:03;6.47;;;4.53;;
21513;SDS011;10918;48.102;11.636;2023-05-07T03:14:29;11.25;;;5.13;;
21513;SDS011;10918;48.102;11.636;2023-05-07T03:16:55;7.07;;;5.43;;
21513;SDS011;10918;48.102;11.636;2023-05-07T03:19:21;5.07;;;4.57;;
21513;SDS011;10918;48.102;11.636;2023-05-07T03:21:47;5.22;;;4.22;;
21513;SDS011;10918;48.102;11.636;2023-05-07T03:24:13;4.78;;;4.28;;
21513;SDS011;10918;48.102;11.636;2023-05-07T03:26:39;6.43;;;4.90;;
21513;SDS011;10918;48.102;11.636;2023-05-07T03:29:05;5.55;;;4.20;;
21513;SDS011;10918;48.102;11.636;2023-05-07T03:31:31;5.95;;;4.70;;
21513;SDS011;10918;48.102;11.636;2023-05-07T03:33:58;5.90;;;4.70;;
21513;SDS011;10918;48.102;11.636;2023-05-07T03:36:24;5.38;;;4.35;;
21513;SDS011;10918;48.102;11.636;2023-05-07T03:38:52;6.78;;;4.50;;
21513;SDS011;10918;48.102;11.636;2023-05-07T03:41:18;5.35;;;4.20;;
21513;SDS011;10918;48.102;11.636;2023-05-07T03:43:45;6.00;;;4.72;;
21513;SDS011;10918;48.102;11.636;2023-05-07T03:46:11;5.50;;;4.93;;
21513;SDS011;10918;48.102;11.636;2023-05-07T03:48:37;5.68;;;4.53;;
21513;SDS011;10918;48.102;11.636;2023-05-07T03:51:03;4.85;;;4.30;;
21513;SDS011;10918;48.102;11.636;2023-05-07T03:53:29;5.93;;;4.47;;
21513;SDS011;10918;48.102;11.636;2023-05-07T03:55:55;5.50;;;4.57;;
21513;SDS011;10918;48.102;11.636;2023-05-07T03:58:21;5.85;;;4.22;;
21513;SDS011;10918;48.102;11.636;2023-05-07T04:00:47;6.00;;;4.45;;
21513;SDS011;10918;48.102;11.636;2023-05-07T04:03:13;6.50;;;4.50;;
21513;SDS011;10918;48.102;11.636;2023-05-07T04:05:39;4.57;;;3.85;;
21513;SDS011;10918;48.102;11.636;2023-05-07T04:08:05;5.25;;;4.55;;
21513;SDS011;10918;48.102;11.636;2023-05-07T04:10:32;3.88;;;3.58;;
21513;SDS011;10918;48.102;11.636;2023-05-07T04:12:58;4.47;;;4.07;;
21513;SDS011;10918;48.102;11.636;2023-05-07T04:15:24;5.90;;;3.78;;
21513;SDS011;10918;48.102;11.636;2023-05-07T04:17:50;4.82;;;4.32;;
21513;SDS011;10918;48.102;11.636;2023-05-07T04:20:16;6.30;;;4.28;;
21513;SDS011;10918;48.102;11.636;2023-05-07T04:22:42;4.70;;;4.28;;
21513;SDS011;10918;48.102;11.636;2023-05-07T04:25:08;4.55;;;4.15;;
21513;SDS011;10918;48.102;11.636;2023-05-07T04:27:35;5.50;;;4.03;;
21513;SDS011;10918;48.102;11.636;2023-05-07T04:30:02;4.65;;;4.10;;
21513;SDS011;10918;48.102;11.636;2023-05-07T04:32:29;6.05;;;4.47;;
21513;SDS011;10918;48.102;11.636;2023-05-07T04:34:55;4.18;;;3.78;;
21513;SDS011;10918;48.102;11.636;2023-05-07T04:37:21;5.72;;;4.18;;
21513;SDS011;10918;48.102;11.636;2023-05-07T04:39:47;5.43;;;3.83;;
21513;SDS011;10918;48.102;11.636;2023-05-07T04:42:14;6.78;;;3.90;;
21513;SDS011;10918;48.102;11.636;2023-05-07T04:44:40;5.30;;;3.92;;
21513;SDS011;10918;48.102;11.636;2023-05-07T04:47:06;3.85;;;3.42;;
21513;SDS011;10918;48.102;11.636;2023-05-07T04:49:32;3.88;;;3.47;;
21513;SDS011;10918;48.102;11.636;2023-05-07T04:51:58;5.40;;;3.80;;
21513;SDS011;10918;48.102;11.636;2023-05-07T04:54:24;7.10;;;3.80;;
21513;SDS011;10918;48.102;11.636;2023-05-07T04:56:51;3.95;;;3.30;;
21513;SDS011;10918;48.102;11.636;2023-05-07T04:59:17;4.32;;;3.58;;
21513;SDS011;10918;48.102;11.636;2023-05-07T05:01:43;4.35;;;3.92;;
21513;SDS011;10918;48.102;11.636;2023-05-07T05:04:09;4.80;;;3.42;;
21513;SDS011;10918;48.102;11.636;2023-05-07T05:06:35;7.00;;;4.00;;
21513;SDS011;10918;48.102;11.636;2023-05-07T05:09:01;3.47;;;3.15;;
21513;SDS011;10918;48.102;11.636;2023-05-07T05:11:27;3.85;;;3.45;;
21513;SDS011;10918;48.102;11.636;2023-05-07T05:13:53;4.50;;;3.63;;
21513;SDS011;10918;48.102;11.636;2023-05-07T05:16:19;4.13;;;3.28;;
21513;SDS011;10918;48.102;11.636;2023-05-07T05:18:45;4.45;;;3.42;;
21513;SDS011;10918;48.102;11.636;2023-05-07T05:21:11;3.70;;;3.40;;
21513;SDS011;10918;48.102;11.636;2023-05-07T05:23:37;4.07;;;3.60;;
21513;SDS011;10918;48.102;11.636;2023-05-07T05:26:03;4.95;;;4.00;;
21513;SDS011;10918;48.102;11.636;2023-05-07T05:28:29;4.30;;;3.90;;
21513;SDS011;10918;48.102;11.636;2023-05-07T05:30:55;3.60;;;3.25;;
21513;SDS011;10918;48.102;11.636;2023-05-07T05:33:21;3.90;;;3.50;;
21513;SDS011;10918;48.102;11.636;2023-05-07T05:35:49;3.60;;;3.30;;
21513;SDS011;10918;48.102;11.636;2023-05-07T05:38:15;4.82;;;3.42;;
21513;SDS011;10918;48.102;11.636;2023-05-07T05:40:41;6.40;;;4.18;;
21513;SDS011;10918;48.102;11.636;2023-05-07T05:43:07;4.22;;;3.70;;
21513;SDS011;10918;48.102;11.636;2023-05-07T05:45:33;5.43;;;3.60;;
21513;SDS011;10918;48.102;11.636;2023-05-07T05:48:00;5.03;;;3.88;;
21513;SDS011;10918;48.102;11.636;2023-05-07T05:50:26;5.00;;;3.50;;
21513;SDS011;10918;48.102;11.636;2023-05-07T05:52:52;3.80;;;3.35;;
21513;SDS011;10918;48.102;11.636;2023-05-07T05:55:18;3.97;;;3.58;;
21513;SDS011;10918;48.102;11.636;2023-05-07T05:57:44;3.67;;;3.38;;
21513;SDS011;10918;48.102;11.636;2023-05-07T06:00:10;6.10;;;4.05;;
21513;SDS011;10918;48.102;11.636;2023-05-07T06:02:36;4.63;;;3.50;;
21513;SDS011;10918;48.102;11.636;2023-05-07T06:05:02;3.92;;;3.63;;
21513;SDS011;10918;48.102;11.636;2023-05-07T06:07:28;4.88;;;3.95;;
21513;SDS011;10918;48.102;11.636;2023-05-07T06:09:54;4.97;;;3.60;;
21513;SDS011;10918;48.102;11.636;2023-05-07T06:12:21;3.45;;;3.15;;
21513;SDS011;10918;48.102;11.636;2023-05-07T06:14:47;6.32;;;4.10;;
21513;SDS011;10918;48.102;11.636;2023-05-07T06:17:13;4.70;;;3.58;;
21513;SDS011;10918;48.102;11.636;2023-05-07T06:19:38;4.25;;;3.80;;
21513;SDS011;10918;48.102;11.636;2023-05-07T06:22:04;4.90;;;3.22;;
21513;SDS011;10918;48.102;11.636;2023-05-07T06:24:30;5.22;;;3.38;;
21513;SDS011;10918;48.102;11.636;2023-05-07T06:26:56;4.10;;;3.47;;
21513;SDS011;10918;48.102;11.636;2023-05-07T06:29:23;3.22;;;2.92;;
21513;SDS011;10918;48.102;11.636;2023-05-07T06:31:51;4.35;;;3.03;;
21513;SDS011;10918;48.102;11.636;2023-05-07T06:34:16;4.35;;;3.22;;
21513;SDS011;10918;48.102;11.636;2023-05-07T06:36:42;4.38;;;2.85;;
21513;SDS011;10918;48.102;11.636;2023-05-07T06:39:08;3.58;;;3.25;;
21513;SDS011;10918;48.102;11.636;2023-05-07T06:41:34;4.00;;;3.15;;
21513;SDS011;10918;48.102;11.636;2023-05-07T06:44:01;3.42;;;2.90;;
21513;SDS011;10918;48.102;11.636;2023-05-07T06:46:27;4.40;;;2.55;;
21513;SDS011;10918;48.102;11.636;2023-05-07T06:48:54;2.95;;;2.67;;
21513;SDS011;10918;48.102;11.636;2023-05-07T06:51:21;3.25;;;2.83;;
21513;SDS011;10918;48.102;11.636;2023-05-07T06:53:47;4.60;;;2.60;;
21513;SDS011;10918;48.102;11.636;2023-05-07T06:56:13;6.03;;;2.80;;
21513;SDS011;10918;48.102;11.636;2023-05-07T06:58:39;2.85;;;2.65;;
21513;SDS011;10918;48.102;11.636;2023-05-07T07:01:05;3.10;;;2.80;;
21513;SDS011;10918;48.102;11.636;2023-05-07T07:03:31;3.80;;;2.60;;
21513;SDS011;10918;48.102;11.636;2023-05-07T07:05:57;3.90;;;2.55;;
21513;SDS011;10918;48.102;11.636;2023-05-07T07:08:23;3.47;;;2.50;;
21513;SDS011;10918;48.102;11.636;2023-05-07T07:10:49;2.55;;;2.35;;
21513;SDS011;10918;48.102;11.636;2023-05-07T07:13:15;2.42;;;2.10;;
21513;SDS011;10918;48.102;11.636;2023-05-07T07:15:41;3.80;;;2.45;;
21513;SDS011;10918;48.102;11.636;2023-05-07T07:18:07;2.42;;;2.22;;
21513;SDS011;10918;48.102;11.636;2023-05-07T07:20:33;3.72;;;2.60;;
21513;SDS011;10918;48.102;11.636;2023-05-07T07:22:59;2.83;;;2.50;;
21513;SDS011;10918;48.102;11.636;2023-05-07T07:25:25;3.17;;;2.40;;
21513;SDS011;10918;48.102;11.636;2023-05-07T07:27:51;2.10;;;1.90;;
21513;SDS011;10918;48.102;11.636;2023-05-07T07:30:17;2.40;;;2.15;;
21513;SDS011;10918;48.102;11.636;2023-05-07T07:32:43;2.88;;;2.35;;
21513;SDS011;10918;48.102;11.636;2023-05-07T07:35:09;1.90;;;1.80;;
21513;SDS011;10918;48.102;11.636;2023-05-07T07:37:35;2.10;;;1.98;;
21513;SDS011;10918;48.102;11.636;2023-05-07T07:40:01;2.63;;;2.15;;
21513;SDS011;10918;48.102;11.636;2023-05-07T07:42:28;4.05;;;2.10;;
21513;SDS011;10918;48.102;11.636;2023-05-07T07:44:54;2.20;;;2.00;;
21513;SDS011;10918;48.102;11.636;2023-05-07T07:47:22;2.13;;;1.90;;
21513;SDS011;10918;48.102;11.636;2023-05-07T07:49:48;3.55;;;1.90;;
21513;SDS011;10918;48.102;11.636;2023-05-07T07:52:14;2.33;;;1.85;;
21513;SDS011;10918;48.102;11.636;2023-05-07T07:54:40;3.60;;;1.95;;
21513;SDS011;10918;48.102;11.636;2023-05-07T07:57:06;3.45;;;2.58;;
21513;SDS011;10918;48.102;11.636;2023-05-07T07:59:32;3.67;;;2.20;;
21513;SDS011;10918;48.102;11.636;2023-05-07T08:01:58;3.92;;;2.17;;
21513;SDS011;10918;48.102;11.636;2023-05-07T08:04:24;2.83;;;2.00;;
21513;SDS011;10918;48.102;11.636;2023-05-07T08:06:50;3.28;;;1.92;;
21513;SDS011;10918;48.102;11.636;2023-05-07T08:09:16;2.25;;;2.00;;
21513;SDS011;10918;48.102;11.636;2023-05-07T08:11:42;2.45;;;1.80;;
21513;SDS011;10918;48.102;11.636;2023-05-07T08:14:08;2.40;;;2.00;;
21513;SDS011;10918;48.102;11.636;2023-05-07T08:16:34;3.42;;;1.90;;
21513;SDS011;10918;48.102;11.636;2023-05-07T08:19:00;3.42;;;2.20;;
21513;SDS011;10918;48.102;11.636;2023-05-07T08:21:26;3.60;;;2.05;;
21513;SDS011;10918;48.102;11.636;2023-05-07T08:23:52;3.45;;;2.22;;
21513;SDS011;10918;48.102;11.636;2023-05-07T08:26:18;4.65;;;2.40;;
21513;SDS011;10918;48.102;11.636;2023-05-07T08:28:44;2.63;;;2.00;;
21513;SDS011;10918;48.102;11.636;2023-05-07T08:31:10;3.28;;;2.00;;
21513;SDS011;10918;48.102;11.636;2023-05-07T08:33:36;1.60;;;1.50;;
21513;SDS011;10918;48.102;11.636;2023-05-07T08:36:03;3.20;;;2.50;;
21513;SDS011;10918;48.102;11.636;2023-05-07T08:38:29;2.83;;;2.10;;
21513;SDS011;10918;48.102;11.636;2023-05-07T08:40:55;4.95;;;2.13;;
21513;SDS011;10918;48.102;11.636;2023-05-07T08:43:21;4.07;;;2.60;;
21513;SDS011;10918;48.102;11.636;2023-05-07T08:45:49;2.55;;;1.98;;
21513;SDS011;10918;48.102;11.636;2023-05-07T08:48:18;2.83;;;2.00;;
21513;SDS011;10918;48.102;11.636;2023-05-07T08:50:47;3.20;;;2.17;;
21513;SDS011;10918;48.102;11.636;2023-05-07T08:53:13;2.33;;;1.98;;
21513;SDS011;10918;48.102;11.636;2023-05-07T08:55:39;2.80;;;2.30;;
21513;SDS011;10918;48.102;11.636;2023-05-07T08:58:05;2.67;;;2.08;;
21513;SDS011;10918;48.102;11.636;2023-05-07T09:00:31;2.55;;;2.00;;
21513;SDS011;10918;48.102;11.636;2023-05-07T09:02:57;2.92;;;1.92;;
21513;SDS011;10918;48.102;11.636;2023-05-07T09:05:23;2.45;;;1.90;;
21513;SDS011;10918;48.102;11.636;2023-05-07T09:07:49;2.70;;;1.80;;
21513;SDS011;10918;48.102;11.636;2023-05-07T09:10:15;2.63;;;1.90;;
21513;SDS011;10918;48.102;11.636;2023-05-07T09:12:41;2.13;;;1.65;;
21513;SDS011;10918;48.102;11.636;2023-05-07T09:15:08;3.70;;;1.90;;
21513;SDS011;10918;48.102;11.636;2023-05-07T09:17:34;2.03;;;1.83;;
21513;SDS011;10918;48.102;11.636;2023-05-07T09:20:03;1.65;;;1.45;;
21513;SDS011;10918;48.102;11.636;2023-05-07T09:22:33;3.17;;;1.73;;
21513;SDS011;10918;48.102;11.636;2023-05-07T09:24:59;3.38;;;1.83;;
21513;SDS011;10918;48.102;11.636;2023-05-07T09:27:25;1.75;;;1.65;;
21513;SDS011;10918;48.102;11.636;2023-05-07T09:29:51;2.60;;;1.75;;
21513;SDS011;10918;48.102;11.636;2023-05-07T09:32:17;3.33;;;1.80;;
21513;SDS011;10918;48.102;11.636;2023-05-07T09:34:43;1.90;;;1.60;;
21513;SDS011;10918;48.102;11.636;2023-05-07T09:37:10;2.33;;;1.60;;
21513;SDS011;10918;48.102;11.636;2023-05-07T09:42:06;3.90;;;1.63;;
21513;SDS011;10918;48.102;11.636;2023-05-07T09:44:33;2.45;;;1.40;;
21513;SDS011;10918;48.102;11.636;2023-05-07T09:46:59;1.50;;;1.30;;
21513;SDS011;10918;48.102;11.636;2023-05-07T09:49:28;1.20;;;1.10;;
21513;SDS011;10918;48.102;11.636;2023-05-07T09:51:57;1.77;;;1.20;;
21513;SDS011;10918;48.102;11.636;2023-05-07T09:54:25;2.42;;;1.52;;
21513;SDS011;10918;48.102;11.636;2023-05-07T09:56:53;2.38;;;1.35;;
21513;SDS011;10918;48.102;11.636;2023-05-07T09:59:20;2.25;;;1.52;;
21513;SDS011;10918;48.102;11.636;2023-05-07T10:01:47;1.67;;;1.58;;
21513;SDS011;10918;48.102;11.636;2023-05-07T10:04:13;2.08;;;1.40;;
21513;SDS011;10918;48.102;11.636;2023-05-07T10:06:40;1.55;;;1.30;;
21513;SDS011;10918;48.102;11.636;2023-05-07T10:09:06;2.33;;;1.27;;
21513;SDS011;10918;48.102;11.636;2023-05-07T10:11:33;1.35;;;1.10;;
21513;SDS011;10918;48.102;11.636;2023-05-07T10:14:00;2.55;;;1.50;;
21513;SDS011;10918;48.102;11.636;2023-05-07T10:16:27;1.38;;;1.27;;
21513;SDS011;10918;48.102;11.636;2023-05-07T10:18:53;2.05;;;1.85;;
21513;SDS011;10918;48.102;11.636;2023-05-07T10:21:21;4.32;;;1.50;;
21513;SDS011;10918;48.102;11.636;2023-05-07T10:24:32;1.33;;;1.23;;
21513;SDS011;10918;48.102;11.636;2023-05-07T10:26:42;2.20;;;1.48;;
21513;SDS011;10918;48.102;11.636;2023-05-07T10:29:14;2.28;;;1.30;;
21513;SDS011;10918;48.102;11.636;2023-05-07T10:31:46;1.83;;;1.30;;
21513;SDS011;10918;48.102;11.636;2023-05-07T10:34:14;1.83;;;1.60;;
21513;SDS011;10918;48.102;11.636;2023-05-07T10:36:42;3.83;;;2.50;;
21513;SDS011;10918;48.102;11.636;2023-05-07T10:39:09;2.22;;;1.50;;
21513;SDS011;10918;48.102;11.636;2023-05-07T10:41:35;1.80;;;1.42;;
21513;SDS011;10918;48.102;11.636;2023-05-07T10:44:01;2.10;;;1.75;;
21513;SDS011;10918;48.102;11.636;2023-05-07T10:46:27;3.85;;;3.10;;
21513;SDS011;10918;48.102;11.636;2023-05-07T10:51:26;3.17;;;1.40;;
21513;SDS011;10918;48.102;11.636;2023-05-07T10:56:38;2.75;;;1.73;;
21513;SDS011;10918;48.102;11.636;2023-05-07T11:01:49;2.30;;;1.58;;
21513;SDS011;10918;48.102;11.636;2023-05-07T11:04:16;2.20;;;1.42;;
21513;SDS011;10918;48.102;11.636;2023-05-07T11:07:34;1.75;;;1.02;;
21513;SDS011;10918;48.102;11.636;2023-05-07T11:15:13;1.17;;;1.10;;
21513;SDS011;10918;48.102;11.636;2023-05-07T11:17:53;2.10;;;1.30;;
21513;SDS011;10918;48.102;11.636;2023-05-07T11:20:19;1.40;;;1.20;;
21513;SDS011;10918;48.102;11.636;2023-05-07T11:22:46;1.40;;;1.30;;
21513;SDS011;10918;48.102;11.636;2023-05-07T11:25:17;3.47;;;1.25;;
21513;SDS011;10918;48.102;11.636;2023-05-07T11:27:46;2.30;;;1.55;;
21513;SDS011;10918;48.102;11.636;2023-05-07T11:30:18;1.48;;;1.38;;
21513;SDS011;10918;48.102;11.636;2023-05-07T11:32:46;1.55;;;1.23;;
21513;SDS011;10918;48.102;11.636;2023-05-07T11:35:12;3.25;;;1.67;;
21513;SDS011;10918;48.102;11.636;2023-05-07T11:37:39;3.65;;;1.65;;
21513;SDS011;10918;48.102;11.636;2023-05-07T11:40:06;2.33;;;2.00;;
21513;SDS011;10918;48.102;11.636;2023-05-07T11:42:33;1.70;;;1.60;;
21513;SDS011;10918;48.102;11.636;2023-05-07T11:45:00;2.63;;;2.10;;
21513;SDS011;10918;48.102;11.636;2023-05-07T11:47:26;3.17;;;2.35;;
21513;SDS011;10918;48.102;11.636;2023-05-07T11:49:55;2.30;;;2.10;;
21513;SDS011;10918;48.102;11.636;2023-05-07T11:52:22;3.45;;;2.22;;
21513;SDS011;10918;48.102;11.636;2023-05-07T11:54:48;3.65;;;2.95;;
21513;SDS011;10918;48.102;11.636;2023-05-07T11:57:15;3.63;;;1.90;;
21513;SDS011;10918;48.102;11.636;2023-05-07T11:59:41;2.78;;;2.30;;
21513;SDS011;10918;48.102;11.636;2023-05-07T12:02:09;2.28;;;2.00;;
21513;SDS011;10918;48.102;11.636;2023-05-07T12:04:35;3.85;;;2.08;;
21513;SDS011;10918;48.102;11.636;2023-05-07T12:07:01;3.00;;;2.05;;
21513;SDS011;10918;48.102;11.636;2023-05-07T12:09:27;1.70;;;1.60;;
21513;SDS011;10918;48.102;11.636;2023-05-07T12:11:53;3.28;;;2.22;;
21513;SDS011;10918;48.102;11.636;2023-05-07T12:14:21;3.75;;;2.28;;
21513;SDS011;10918;48.102;11.636;2023-05-07T12:16:47;2.55;;;2.00;;
21513;SDS011;10918;48.102;11.636;2023-05-07T12:19:13;2.47;;;1.95;;
21513;SDS011;10918;48.102;11.636;2023-05-07T12:21:39;3.53;;;2.20;;
21513;SDS011;10918;48.102;11.636;2023-05-07T12:24:05;2.53;;;2.00;;
21513;SDS011;10918;48.102;11.636;2023-05-07T12:26:31;2.15;;;1.90;;
21513;SDS011;10918;48.102;11.636;2023-05-07T12:28:57;2.75;;;2.03;;
21513;SDS011;10918;48.102;11.636;2023-05-07T12:31:26;3.30;;;1.90;;
21513;SDS011;10918;48.102;11.636;2023-05-07T12:33:52;3.05;;;1.60;;
21513;SDS011;10918;48.102;11.636;2023-05-07T12:36:18;3.47;;;1.70;;
21513;SDS011;10918;48.102;11.636;2023-05-07T12:38:46;2.92;;;2.03;;
21513;SDS011;10918;48.102;11.636;2023-05-07T12:41:15;3.63;;;2.08;;
21513;SDS011;10918;48.102;11.636;2023-05-07T12:43:43;2.65;;;1.85;;
21513;SDS011;10918;48.102;11.636;2023-05-07T12:46:10;4.55;;;2.10;;
21513;SDS011;10918;48.102;11.636;2023-05-07T12:48:38;2.67;;;1.77;;
21513;SDS011;10918;48.102;11.636;2023-05-07T12:51:08;1.90;;;1.65;;
21513;SDS011;10918;48.102;11.636;2023-05-07T12:53:39;2.53;;;1.90;;
21513;SDS011;10918;48.102;11.636;2023-05-07T12:56:05;2.38;;;2.08;;
21513;SDS011;10918;48.102;11.636;2023-05-07T12:58:32;2.33;;;2.00;;
21513;SDS011;10918;48.102;11.636;2023-05-07T13:01:00;2.42;;;1.98;;
21513;SDS011;10918;48.102;11.636;2023-05-07T13:03:31;2.00;;;1.80;;
21513;SDS011;10918;48.102;11.636;2023-05-07T13:05:58;2.28;;;1.85;;
21513;SDS011;10918;48.102;11.636;2023-05-07T13:08:28;1.88;;;1.58;;
21513;SDS011;10918;48.102;11.636;2023-05-07T13:10:54;2.30;;;1.50;;
21513;SDS011;10918;48.102;11.636;2023-05-07T13:13:20;2.15;;;1.65;;
21513;SDS011;10918;48.102;11.636;2023-05-07T13:15:47;1.75;;;1.55;;
21513;SDS011;10918;48.102;11.636;2023-05-07T13:18:13;2.53;;;1.90;;
21513;SDS011;10918;48.102;11.636;2023-05-07T13:20:39;2.25;;;1.85;;
21513;SDS011;10918;48.102;11.636;2023-05-07T13:23:05;2.00;;;1.83;;
21513;SDS011;10918;48.102;11.636;2023-05-07T13:25:31;3.03;;;2.05;;
21513;SDS011;10918;48.102;11.636;2023-05-07T13:27:57;3.38;;;2.88;;
21513;SDS011;10918;48.102;11.636;2023-05-07T13:30:23;3.80;;;2.10;;
21513;SDS011;10918;48.102;11.636;2023-05-07T13:32:49;4.00;;;2.00;;
21513;SDS011;10918;48.102;11.636;2023-05-07T13:35:17;1.83;;;1.50;;
21513;SDS011;10918;48.102;11.636;2023-05-07T13:37:43;3.15;;;1.90;;
21513;SDS011;10918;48.102;11.636;2023-05-07T13:40:09;2.40;;;1.70;;
21513;SDS011;10918;48.102;11.636;2023-05-07T13:42:35;2.03;;;1.70;;
21513;SDS011;10918;48.102;11.636;2023-05-07T13:45:01;2.33;;;1.85;;
21513;SDS011;10918;48.102;11.636;2023-05-07T13:47:28;1.98;;;1.60;;
21513;SDS011;10918;48.102;11.636;2023-05-07T13:49:54;2.67;;;1.85;;
21513;SDS011;10918;48.102;11.636;2023-05-07T13:52:20;3.10;;;1.83;;
21513;SDS011;10918;48.102;11.636;2023-05-07T13:54:46;3.58;;;1.80;;
21513;SDS011;10918;48.102;11.636;2023-05-07T13:57:12;2.85;;;1.80;;
21513;SDS011;10918;48.102;11.636;2023-05-07T13:59:38;3.92;;;1.98;;
21513;SDS011;10918;48.102;11.636;2023-05-07T14:02:05;1.83;;;1.50;;
21513;SDS011;10918;48.102;11.636;2023-05-07T14:04:31;2.05;;;1.73;;
21513;SDS011;10918;48.102;11.636;2023-05-07T14:06:57;2.97;;;2.00;;
21513;SDS011;10918;48.102;11.636;2023-05-07T14:09:23;1.40;;;1.30;;
21513;SDS011;10918;48.102;11.636;2023-05-07T14:11:49;3.92;;;1.40;;
21513;SDS011;10918;48.102;11.636;2023-05-07T14:14:17;1.33;;;1.23;;
21513;SDS011;10918;48.102;11.636;2023-05-07T14:16:43;1.83;;;1.50;;
21513;SDS011;10918;48.102;11.636;2023-05-07T14:19:08;3.65;;;1.40;;
21513;SDS011;10918;48.102;11.636;2023-05-07T14:21:35;3.35;;;2.90;;
21513;SDS011;10918;48.102;11.636;2023-05-07T14:24:00;2.88;;;2.38;;
21513;SDS011;10918;48.102;11.636;2023-05-07T14:26:26;1.65;;;1.50;;
21513;SDS011;10918;48.102;11.636;2023-05-07T14:28:53;2.63;;;1.70;;
21513;SDS011;10918;48.102;11.636;2023-05-07T14:31:20;3.10;;;1.77;;
21513;SDS011;10918;48.102;11.636;2023-05-07T14:33:46;2.90;;;1.73;;
21513;SDS011;10918;48.102;11.636;2023-05-07T14:36:12;2.83;;;2.50;;
21513;SDS011;10918;48.102;11.636;2023-05-07T14:38:38;2.20;;;1.95;;
21513;SDS011;10918;48.102;11.636;2023-05-07T14:41:04;2.05;;;1.85;;
21513;SDS011;10918;48.102;11.636;2023-05-07T14:43:30;3.72;;;2.88;;
21513;SDS011;10918;48.102;11.636;2023-05-07T14:45:56;1.70;;;1.60;;